createdAt,value
2023-10-30T00:02:28.332Z,70.95
2023-10-30T00:05:00.635Z,70.22
2023-10-30T00:07:42.454Z,69.91
2023-10-30T00:10:18.574Z,68.92
2023-10-30T00:12:58.910Z,69.25
2023-10-30T00:15:40.092Z,69.92
2023-10-30T00:18:22.896Z,70.19
2023-10-30T00:20:59.300Z,69.94
2023-10-30T00:23:41.164Z,69.95
2023-10-30T00:26:23.733Z,69.52
2023-10-30T00:29:01.747Z,69.60
2023-10-30T00:31:41.526Z,69.01
2023-10-30T00:34:23.912Z,69.50
2023-10-30T00:37:02.489Z,69.51
2023-10-30T00:39:37.356Z,69.39
2023-10-30T00:42:19.840Z,69.59
2023-10-30T00:45:01.675Z,69.99
2023-10-30T00:47:47.101Z,70.20
2023-10-30T00:50:25.947Z,70.03
2023-10-30T00:53:00.203Z,70.59
2023-10-30T00:55:37.848Z,70.98
2023-10-30T00:58:12.637Z,71.29
2023-10-30T01:00:53.254Z,71.58
2023-10-30T01:03:31.599Z,71.47
2023-10-30T01:06:14.607Z,71.66
2023-10-30T01:08:56.542Z,72.23
2023-10-30T01:11:35.732Z,72.81
2023-10-30T01:14:19.463Z,73.10
2023-10-30T01:17:10.064Z,72.84
2023-10-30T01:19:49.290Z,72.69
2023-10-30T01:22:36.602Z,73.02
2023-10-30T01:25:14.349Z,72.94
2023-10-30T01:27:47.359Z,73.26
2023-10-30T01:30:28.481Z,73.47
2023-10-30T01:33:03.261Z,73.88
2023-10-30T01:35:43.910Z,74.23
2023-10-30T01:38:30.616Z,74.37
2023-10-30T01:41:05.744Z,74.31
2023-10-30T01:43:50.339Z,73.99
2023-10-30T01:46:26.430Z,73.82
2023-10-30T01:49:07.538Z,74.02
2023-10-30T01:51:47.816Z,74.90
2023-10-30T01:54:42.666Z,75.90
2023-10-30T01:57:29.773Z,76.28
2023-10-30T02:00:15.125Z,75.81
2023-10-30T02:02:53.782Z,75.85
2023-10-30T02:05:24.451Z,76.39
2023-10-30T02:08:05.576Z,76.51
2023-10-30T02:10:43.539Z,76.61
2023-10-30T02:13:21.209Z,76.76
2023-10-30T02:16:03.662Z,77.13
2023-10-30T02:18:47.900Z,77.29
2023-10-30T02:21:29.501Z,76.75
2023-10-30T02:24:14.173Z,76.64
2023-10-30T02:27:00.835Z,77.53
2023-10-30T02:29:36.724Z,77.69
2023-10-30T02:32:11.837Z,77.69
2023-10-30T02:34:46.521Z,77.75
2023-10-30T02:37:17.650Z,77.63
2023-10-30T02:39:49.989Z,77.83
2023-10-30T02:42:39.589Z,78.43
2023-10-30T02:45:25.146Z,78.50
2023-10-30T02:48:01.956Z,78.42
2023-10-30T02:50:37.902Z,78.76
2023-10-30T02:53:23.655Z,79.18
2023-10-30T02:56:00.485Z,79.29
2023-10-30T02:58:52.929Z,79.65
2023-10-30T03:01:26.786Z,80.12
2023-10-30T03:04:02.854Z,80.16
2023-10-30T03:06:44.148Z,80.31
2023-10-30T03:09:19.750Z,80.92
2023-10-30T03:11:55.204Z,81.48
2023-10-30T03:14:43.033Z,81.75
2023-10-30T03:17:24.680Z,81.89
2023-10-30T03:20:06.823Z,82.11
2023-10-30T03:22:47.435Z,82.30
2023-10-30T03:25:32.100Z,81.98
2023-10-30T03:28:13.614Z,82.30
2023-10-30T03:30:57.889Z,82.13
2023-10-30T03:33:45.775Z,82.38
2023-10-30T03:36:33.710Z,82.66
2023-10-30T03:39:28.059Z,83.00
2023-10-30T03:42:04.800Z,83.14
2023-10-30T03:44:38.997Z,85.36
2023-10-30T03:47:26.905Z,87.04
2023-10-30T03:50:05.274Z,87.44
2023-10-30T03:52:42.975Z,88.52
2023-10-30T03:55:20.941Z,87.82
2023-10-30T03:57:58.936Z,87.68
2023-10-30T04:00:38.568Z,87.87
2023-10-30T04:03:28.341Z,87.35
2023-10-30T04:06:38.859Z,87.06
2023-10-30T04:09:32.593Z,86.43
2023-10-30T04:12:07.937Z,86.49
2023-10-30T04:14:45.671Z,86.53
2023-10-30T04:17:21.729Z,86.67
2023-10-30T04:20:02.159Z,86.64
2023-10-30T04:22:33.234Z,86.50
2023-10-30T04:25:08.273Z,86.06
2023-10-30T04:27:40.149Z,85.94
2023-10-30T04:30:28.295Z,85.81
2023-10-30T04:33:08.326Z,85.40
2023-10-30T04:36:05.175Z,85.71
2023-10-30T04:38:48.555Z,85.40
2023-10-30T04:41:28.082Z,85.02
2023-10-30T04:44:12.151Z,85.11
2023-10-30T04:46:48.706Z,84.68
2023-10-30T04:49:30.115Z,84.72
2023-10-30T04:52:22.207Z,84.98
2023-10-30T04:55:03.600Z,85.08
2023-10-30T04:57:39.386Z,85.02
2023-10-30T05:00:30.011Z,85.48
2023-10-30T05:03:17.591Z,85.51
2023-10-30T05:06:05.143Z,85.51
2023-10-30T05:08:45.519Z,85.93
2023-10-30T05:11:33.173Z,85.38
2023-10-30T05:14:11.801Z,85.89
2023-10-30T05:16:53.917Z,85.80
2023-10-30T05:19:30.674Z,85.89
2023-10-30T05:22:13.186Z,86.02
2023-10-30T05:25:03.274Z,86.23
2023-10-30T05:27:37.051Z,86.46
2023-10-30T05:30:20.174Z,86.46
2023-10-30T05:32:58.887Z,86.89
2023-10-30T05:35:41.073Z,87.08
2023-10-30T05:38:21.567Z,86.45
2023-10-30T05:41:09.514Z,87.15
2023-10-30T05:43:49.764Z,87.40
2023-10-30T05:46:28.756Z,87.13
2023-10-30T05:49:06.780Z,86.88
2023-10-30T05:51:48.945Z,88.09
2023-10-30T05:54:31.446Z,88.14
2023-10-30T05:57:15.300Z,87.31
2023-10-30T05:59:57.223Z,87.00
2023-10-30T06:02:51.976Z,85.91
2023-10-30T06:05:32.062Z,85.07
2023-10-30T06:08:09.599Z,84.97
2023-10-30T06:10:53.020Z,84.53
2023-10-30T06:13:37.830Z,84.06
2023-10-30T06:16:22.606Z,83.32
2023-10-30T06:18:54.332Z,83.61
2023-10-30T06:21:34.673Z,84.29
2023-10-30T06:24:13.792Z,84.55
2023-10-30T06:26:52.585Z,85.41
2023-10-30T06:29:43.628Z,85.98
2023-10-30T06:32:21.464Z,86.64
2023-10-30T06:35:06.518Z,87.22
2023-10-30T06:37:46.315Z,87.57
2023-10-30T06:40:22.372Z,88.28
2023-10-30T06:43:07.263Z,88.45
2023-10-30T06:46:02.176Z,88.43
2023-10-30T06:48:52.204Z,88.74
2023-10-30T06:51:46.093Z,88.90
2023-10-30T06:54:25.816Z,88.79
2023-10-30T06:57:22.542Z,88.51
2023-10-30T07:00:07.210Z,88.81
2023-10-30T07:02:48.355Z,88.82
2023-10-30T07:05:25.522Z,88.93
2023-10-30T07:08:03.820Z,89.58
2023-10-30T07:10:42.961Z,89.86
2023-10-30T07:13:26.453Z,89.18
2023-10-30T07:16:09.968Z,89.55
2023-10-30T07:18:49.563Z,89.47
2023-10-30T07:21:23.040Z,88.74
2023-10-30T07:24:22.986Z,88.37
2023-10-30T07:27:16.387Z,87.89
2023-10-30T07:30:07.803Z,87.37
2023-10-30T07:32:51.406Z,87.06
2023-10-30T07:35:32.697Z,86.31
2023-10-30T07:38:12.480Z,86.88
2023-10-30T07:40:53.821Z,86.61
2023-10-30T07:43:38.279Z,86.84
2023-10-30T07:46:14.522Z,86.52
2023-10-30T07:48:49.367Z,86.38
2023-10-30T07:51:37.965Z,86.50
2023-10-30T07:54:24.123Z,86.46
2023-10-30T07:57:01.428Z,86.44
2023-10-30T07:59:44.617Z,86.28
2023-10-30T08:02:23.463Z,86.26
2023-10-30T08:05:03.711Z,85.81
2023-10-30T08:07:50.642Z,85.85
2023-10-30T08:10:29.850Z,85.66
2023-10-30T08:13:06.087Z,85.76
2023-10-30T08:15:38.779Z,85.50
2023-10-30T08:18:16.953Z,86.00
2023-10-30T08:20:59.396Z,85.93
2023-10-30T08:23:55.126Z,85.92
2023-10-30T08:26:38.307Z,86.16
2023-10-30T08:29:16.631Z,86.11
2023-10-30T08:32:02.403Z,86.46
2023-10-30T08:34:42.356Z,85.61
2023-10-30T08:37:29.724Z,85.68
2023-10-30T08:40:10.224Z,85.57
2023-10-30T08:42:58.306Z,84.09
2023-10-30T08:45:36.961Z,83.52
2023-10-30T08:48:18.579Z,83.29
2023-10-30T08:51:00.081Z,83.55
2023-10-30T08:53:36.838Z,83.81
2023-10-30T08:56:30.891Z,84.04
2023-10-30T09:02:56.062Z,81.53
2023-10-30T09:05:38.360Z,80.16
2023-10-30T09:08:15.252Z,78.55
2023-10-30T09:10:47.084Z,78.31
2023-10-30T09:13:25.922Z,76.72
2023-10-30T09:16:06.963Z,76.36
2023-10-30T09:18:39.238Z,75.61
2023-10-30T09:21:14.030Z,74.99
2023-10-30T09:23:51.682Z,75.02
2023-10-30T09:26:31.868Z,73.49
2023-10-30T09:29:12.335Z,72.41
2023-10-30T09:31:53.608Z,71.72
2023-10-30T09:34:25.657Z,70.70
2023-10-30T09:37:03.916Z,69.88
2023-10-30T09:39:39.786Z,69.45
2023-10-30T09:42:20.444Z,68.22
2023-10-30T09:45:06.482Z,68.20
2023-10-30T09:47:51.199Z,68.16
2023-10-30T09:50:27.274Z,68.41
2023-10-30T09:53:11.755Z,68.71
2023-10-30T09:55:47.207Z,64.90
2023-10-30T09:58:26.935Z,59.75
2023-10-30T10:01:09.517Z,56.83
2023-10-30T10:03:50.165Z,54.84
2023-10-30T10:06:23.096Z,55.73
2023-10-30T10:09:04.098Z,55.00
2023-10-30T10:11:42.355Z,54.96
2023-10-30T10:14:17.468Z,55.73
2023-10-30T10:17:03.207Z,54.23
2023-10-30T10:19:52.397Z,54.16
2023-10-30T10:22:45.054Z,52.48
2023-10-30T10:25:22.967Z,53.71
2023-10-30T10:28:02.417Z,52.34
2023-10-30T10:30:45.302Z,52.72
2023-10-30T10:33:27.622Z,52.02
2023-10-30T10:39:07.001Z,51.86
2023-10-30T10:41:57.026Z,50.30
2023-10-30T10:44:31.560Z,48.96
2023-10-30T10:47:08.798Z,48.56
2023-10-30T10:50:05.766Z,47.42
2023-10-30T10:52:46.946Z,48.86
2023-10-30T10:55:24.239Z,48.35
2023-10-30T10:58:13.538Z,46.18
2023-10-30T11:01:09.400Z,45.35
2023-10-30T11:03:48.266Z,45.36
2023-10-30T11:06:41.184Z,47.11
2023-10-30T11:09:29.472Z,47.23
2023-10-30T11:12:29.336Z,45.09
2023-10-30T11:15:21.067Z,45.61
2023-10-30T11:18:23.703Z,44.36
2023-10-30T11:21:18.113Z,46.15
2023-10-30T11:24:12.276Z,44.49
2023-10-30T11:26:55.175Z,44.21
2023-10-30T11:29:28.922Z,42.68
2023-10-30T11:32:14.285Z,40.77
2023-10-30T11:34:58.634Z,42.78
2023-10-30T11:37:32.796Z,42.59
2023-10-30T11:40:25.314Z,41.77
2023-10-30T11:43:20.284Z,42.10
2023-10-30T11:46:16.328Z,39.19
2023-10-30T11:48:51.459Z,42.33
2023-10-30T11:51:36.379Z,42.57
2023-10-30T11:54:28.599Z,43.75
2023-10-30T11:57:19.448Z,43.58
2023-10-30T12:00:11.273Z,42.82
2023-10-30T12:02:50.928Z,42.31
2023-10-30T12:05:36.980Z,43.56
2023-10-30T12:08:11.699Z,42.32
2023-10-30T12:11:00.472Z,41.52
2023-10-30T12:13:55.851Z,41.38
2023-10-30T12:16:38.054Z,34.80
2023-10-30T12:19:21.274Z,39.17
2023-10-30T12:22:06.688Z,42.72
2023-10-30T12:24:58.231Z,37.90
2023-10-30T12:27:39.510Z,39.58
2023-10-30T12:30:28.321Z,40.16
2023-10-30T12:33:09.875Z,38.41
2023-10-30T12:35:51.844Z,36.46
2023-10-30T12:38:28.815Z,38.25
2023-10-30T12:41:07.898Z,34.73
2023-10-30T12:43:52.350Z,34.03
2023-10-30T12:46:35.996Z,33.43
2023-10-30T12:49:17.148Z,32.49
2023-10-30T12:52:08.036Z,32.26
2023-10-30T12:54:52.032Z,32.03
2023-10-30T12:57:24.715Z,31.08
2023-10-30T13:00:11.415Z,31.68
2023-10-30T13:03:06.931Z,31.33
2023-10-30T13:08:36.836Z,30.00
2023-10-30T13:11:20.967Z,30.28
2023-10-30T13:14:02.378Z,30.26
2023-10-30T13:16:42.246Z,30.50
2023-10-30T13:19:24.807Z,30.30
2023-10-30T13:22:04.872Z,31.16
2023-10-30T13:24:49.086Z,30.97
2023-10-30T13:27:35.910Z,31.39
2023-10-30T13:30:31.578Z,31.48
2023-10-30T13:33:20.847Z,31.66
2023-10-30T13:36:03.623Z,31.89
2023-10-30T13:38:45.033Z,32.45
2023-10-30T13:41:23.817Z,32.63
2023-10-30T13:44:06.434Z,33.70
2023-10-30T13:46:42.106Z,34.62
2023-10-30T13:49:26.528Z,34.83
2023-10-30T13:52:02.301Z,35.43
2023-10-30T13:54:53.792Z,36.44
2023-10-30T13:57:33.845Z,37.08
2023-10-30T14:00:16.807Z,37.46
2023-10-30T14:03:00.479Z,37.16
2023-10-30T14:05:40.666Z,37.84
2023-10-30T14:08:18.417Z,38.06
2023-10-30T14:11:03.926Z,38.66
2023-10-30T14:13:40.120Z,38.02
2023-10-30T14:16:30.796Z,38.82
2023-10-30T14:19:21.576Z,38.56
2023-10-30T14:21:59.733Z,38.29
2023-10-30T14:24:44.152Z,38.11
2023-10-30T14:27:37.506Z,38.66
2023-10-30T14:30:20.772Z,38.79
2023-10-30T14:33:04.455Z,38.94
2023-10-30T14:35:40.715Z,38.37
2023-10-30T14:38:12.748Z,38.70
2023-10-30T14:41:03.196Z,39.18
2023-10-30T14:43:44.329Z,39.34
2023-10-30T14:46:23.557Z,40.07
2023-10-30T14:49:03.988Z,40.04
2023-10-30T14:51:54.410Z,40.08
2023-10-30T14:54:29.994Z,40.87
2023-10-30T14:57:19.847Z,41.31
2023-10-30T15:00:05.237Z,40.86
2023-10-30T15:02:36.691Z,40.86
2023-10-30T15:05:16.993Z,40.66
2023-10-30T15:07:56.892Z,40.88
2023-10-30T15:10:31.427Z,41.01
2023-10-30T15:13:17.318Z,41.03
2023-10-30T15:16:12.634Z,41.03
2023-10-30T15:19:02.465Z,41.45
2023-10-30T15:21:38.858Z,41.85
2023-10-30T15:24:25.966Z,41.86
2023-10-30T15:27:26.764Z,41.91
2023-10-30T15:30:09.218Z,42.11
2023-10-30T15:32:54.138Z,42.03
2023-10-30T15:35:37.245Z,41.76
2023-10-30T15:38:19.830Z,41.40
2023-10-30T15:41:09.802Z,42.05
2023-10-30T15:43:53.689Z,42.47
2023-10-30T15:46:52.728Z,42.86
2023-10-30T15:49:55.582Z,43.66
2023-10-30T15:57:47.648Z,44.88
2023-10-30T16:00:28.470Z,46.00
2023-10-30T16:06:09.920Z,47.26
2023-10-30T16:08:54.822Z,48.32
2023-10-30T16:11:30.963Z,48.96
2023-10-30T16:14:03.200Z,49.86
2023-10-30T16:17:18.012Z,50.49
2023-10-30T16:22:49.606Z,52.00
2023-10-30T16:25:26.024Z,52.04
2023-10-30T16:28:07.518Z,52.12
2023-10-30T16:30:43.684Z,52.66
2023-10-30T16:33:32.614Z,53.03
2023-10-30T16:36:28.839Z,53.66
2023-10-30T16:39:09.922Z,53.52
2023-10-30T16:44:34.406Z,53.71
2023-10-30T16:47:11.922Z,54.17
2023-10-30T16:50:05.551Z,54.47
2023-10-30T16:52:56.238Z,54.06
2023-10-30T16:55:54.981Z,54.25
2023-10-30T16:58:30.520Z,54.32
2023-10-30T17:01:07.880Z,54.08
2023-10-30T17:03:54.754Z,54.21
2023-10-30T17:06:29.372Z,53.30
2023-10-30T17:09:05.957Z,53.40
2023-10-30T17:11:49.894Z,52.85
2023-10-30T17:14:23.455Z,52.95
2023-10-30T17:17:11.320Z,53.28
2023-10-30T17:19:46.828Z,52.61
2023-10-30T17:22:27.489Z,52.33
2023-10-30T17:25:18.754Z,52.38
2023-10-30T17:28:11.988Z,52.29
2023-10-30T17:30:48.717Z,52.54
2023-10-30T17:33:28.657Z,51.72
2023-10-30T17:36:11.815Z,51.31
2023-10-30T17:38:50.884Z,51.46
2023-10-30T17:41:28.275Z,51.45
2023-10-30T17:44:19.146Z,51.16
2023-10-30T17:47:01.649Z,51.02
2023-10-30T17:49:35.427Z,50.93
2023-10-30T17:52:12.852Z,50.84
2023-10-30T17:54:53.013Z,51.29
2023-10-30T17:57:34.576Z,50.89
2023-10-30T18:00:12.248Z,51.14
2023-10-30T18:02:49.853Z,51.34
2023-10-30T18:05:27.573Z,51.63
2023-10-30T18:08:01.714Z,51.64
2023-10-30T18:10:36.825Z,52.07
2023-10-30T18:13:43.537Z,51.84
2023-10-30T18:16:23.504Z,51.94
2023-10-30T18:19:23.552Z,51.90
2023-10-30T18:21:57.834Z,51.26
2023-10-30T18:24:33.335Z,51.04
2023-10-30T18:27:21.849Z,50.91
2023-10-30T18:30:08.649Z,50.82
2023-10-30T18:32:53.319Z,50.15
2023-10-30T18:35:33.063Z,49.11
2023-10-30T18:38:20.975Z,48.71
2023-10-30T18:40:57.378Z,48.05
2023-10-30T18:43:35.020Z,47.33
2023-10-30T18:46:27.844Z,47.27
2023-10-30T18:48:59.584Z,47.00
2023-10-30T18:51:38.245Z,46.65
2023-10-30T18:54:19.039Z,47.08
2023-10-30T18:56:51.141Z,47.05
2023-10-30T18:59:34.697Z,46.98
2023-10-30T19:02:15.706Z,47.03
2023-10-30T19:04:50.288Z,48.47
2023-10-30T19:07:26.481Z,50.28
2023-10-30T19:10:07.814Z,51.39
2023-10-30T19:12:41.823Z,51.90
2023-10-30T19:15:27.436Z,52.59
2023-10-30T19:18:16.580Z,52.77
2023-10-30T19:20:53.063Z,53.01
2023-10-30T19:23:40.336Z,52.72
2023-10-30T19:26:17.471Z,52.78
2023-10-30T19:28:53.012Z,53.25
2023-10-30T19:31:42.868Z,53.35
2023-10-30T19:34:31.012Z,53.88
2023-10-30T19:37:11.921Z,53.84
2023-10-30T19:39:48.863Z,53.74
2023-10-30T19:42:33.077Z,53.63
2023-10-30T19:45:12.457Z,71.82
2023-10-30T19:47:49.644Z,71.94
2023-10-30T19:50:31.901Z,69.66
2023-10-30T19:53:09.626Z,65.71
2023-10-30T19:55:57.560Z,64.84
2023-10-30T19:58:36.231Z,64.07
2023-10-30T20:01:08.504Z,61.97
2023-10-30T20:03:41.310Z,60.51
2023-10-30T20:06:33.078Z,62.08
2023-10-30T20:09:14.838Z,60.42
2023-10-30T20:11:58.823Z,60.92
2023-10-30T20:14:42.232Z,58.45
2023-10-30T20:17:26.841Z,57.88
2023-10-30T20:20:08.362Z,54.99
2023-10-30T20:23:11.134Z,56.10
2023-10-30T20:25:57.594Z,55.43
2023-10-30T20:28:28.912Z,57.35
2023-10-30T20:31:07.842Z,57.36
2023-10-30T20:33:43.223Z,55.84
2023-10-30T20:36:21.664Z,57.79
2023-10-30T20:39:00.054Z,58.22
2023-10-30T20:41:36.842Z,59.37
2023-10-30T20:44:17.354Z,56.84
2023-10-30T20:46:59.814Z,61.18
2023-10-30T20:49:44.625Z,59.37
2023-10-30T20:52:25.618Z,58.64
2023-10-30T20:55:05.161Z,63.22
2023-10-30T20:57:47.064Z,60.76
2023-10-30T21:00:40.159Z,60.39
2023-10-30T21:03:24.209Z,61.23
2023-10-30T21:06:10.299Z,60.86
2023-10-30T21:08:51.874Z,59.08
2023-10-30T21:11:45.034Z,61.03
2023-10-30T21:14:27.171Z,62.10
2023-10-30T21:17:08.175Z,59.15
2023-10-30T21:19:49.359Z,60.33
2023-10-30T21:22:25.521Z,59.49
2023-10-30T21:24:56.503Z,59.06
2023-10-30T21:27:42.211Z,61.06
2023-10-30T21:30:32.617Z,56.85
2023-10-30T21:33:13.248Z,57.28
2023-10-30T21:35:48.025Z,54.49
2023-10-30T21:38:23.716Z,58.05
2023-10-30T21:41:12.486Z,57.26
2023-10-30T21:47:01.191Z,55.35
2023-10-30T21:49:56.796Z,55.64
2023-10-30T21:52:32.982Z,57.93
2023-10-30T21:55:11.029Z,58.25
2023-10-30T21:57:46.696Z,59.17
2023-10-30T22:00:26.549Z,56.82
2023-10-30T22:03:03.557Z,57.38
2023-10-30T22:05:41.758Z,56.21
2023-10-30T22:08:21.327Z,57.67
2023-10-30T22:11:10.238Z,61.00
2023-10-30T22:13:52.971Z,58.00
2023-10-30T22:16:35.219Z,56.91
2023-10-30T22:19:19.441Z,57.21
2023-10-30T22:22:16.964Z,53.96
2023-10-30T22:25:00.821Z,56.66
2023-10-30T22:27:40.582Z,55.98
2023-10-30T22:30:30.054Z,56.39
2023-10-30T22:33:16.416Z,58.13
2023-10-30T22:35:48.510Z,56.06
2023-10-30T22:38:36.250Z,52.56
2023-10-30T22:41:29.575Z,51.46
2023-10-30T22:44:06.074Z,51.24
2023-10-30T22:46:43.262Z,51.19
2023-10-30T22:49:25.902Z,52.17
2023-10-30T22:52:10.195Z,52.52
2023-10-30T22:54:51.669Z,53.28
2023-10-30T22:57:33.211Z,53.24
2023-10-30T23:00:18.360Z,53.53
2023-10-30T23:02:59.585Z,53.79
2023-10-30T23:05:55.958Z,54.46
2023-10-30T23:08:34.789Z,54.57
2023-10-30T23:11:12.766Z,54.53
2023-10-30T23:13:53.910Z,54.59
2023-10-30T23:16:30.970Z,54.75
2023-10-30T23:19:03.742Z,54.26
2023-10-30T23:21:40.298Z,54.01
2023-10-30T23:24:21.666Z,54.62
2023-10-30T23:27:04.204Z,54.60
2023-10-30T23:29:48.168Z,54.92
2023-10-30T23:32:28.373Z,54.91
2023-10-30T23:35:04.501Z,55.46
2023-10-30T23:37:47.028Z,54.92
2023-10-30T23:40:27.512Z,55.23
2023-10-30T23:43:12.280Z,55.01
2023-10-30T23:45:55.872Z,54.83
2023-10-30T23:48:36.385Z,54.90
2023-10-30T23:51:27.269Z,54.70
2023-10-30T23:54:08.466Z,55.07
2023-10-30T23:56:44.745Z,54.79
2023-10-30T23:59:19.642Z,55.22
